sensor_id;sensor_type;location;lat;lon;timestamp;temperature;humidity
38456;DHT22;24237;50.106;20.014;2023-12-20T00:01:06;11.00;1.00
38456;DHT22;24237;50.106;20.014;2023-12-20T00:03:32;10.90;1.00
38456;DHT22;24237;50.106;20.014;2023-12-20T00:05:57;11.10;1.00
38456;DHT22;24237;50.106;20.014;2023-12-20T00:08:23;10.90;1.00
38456;DHT22;24237;50.106;20.014;2023-12-20T00:10:49;10.90;1.00
38456;DHT22;24237;50.106;20.014;2023-12-20T00:13:14;10.80;1.00
38456;DHT22;24237;50.106;20.014;2023-12-20T00:15:40;10.80;1.00
38456;DHT22;24237;50.106;20.014;2023-12-20T00:18:26;10.90;1.00
38456;DHT22;24237;50.106;20.014;2023-12-20T00:20:51;10.80;1.00
38456;DHT22;24237;50.106;20.014;2023-12-20T00:23:17;10.70;1.00
38456;DHT22;24237;50.106;20.014;2023-12-20T00:25:43;10.50;1.00
38456;DHT22;24237;50.106;20.014;2023-12-20T00:28:09;10.40;1.00
38456;DHT22;24237;50.106;20.014;2023-12-20T00:30:34;10.40;1.00
38456;DHT22;24237;50.106;20.014;2023-12-20T00:33:00;10.50;1.00
38456;DHT22;24237;50.106;20.014;2023-12-20T00:35:26;10.40;1.00
38456;DHT22;24237;50.106;20.014;2023-12-20T00:37:52;10.40;1.00
38456;DHT22;24237;50.106;20.014;2023-12-20T00:40:18;10.30;1.00
38456;DHT22;24237;50.106;20.014;2023-12-20T00:42:43;10.50;1.00
38456;DHT22;24237;50.106;20.014;2023-12-20T00:45:09;10.70;1.00
38456;DHT22;24237;50.106;20.014;2023-12-20T00:47:35;10.80;1.00
38456;DHT22;24237;50.106;20.014;2023-12-20T00:50:00;10.90;1.00
38456;DHT22;24237;50.106;20.014;2023-12-20T00:52:26;10.90;1.00
38456;DHT22;24237;50.106;20.014;2023-12-20T00:54:52;10.90;1.00
38456;DHT22;24237;50.106;20.014;2023-12-20T00:57:18;10.90;1.00
38456;DHT22;24237;50.106;20.014;2023-12-20T00:59:44;11.00;1.00
38456;DHT22;24237;50.106;20.014;2023-12-20T01:02:09;10.90;1.00
38456;DHT22;24237;50.106;20.014;2023-12-20T01:04:35;10.90;1.00
38456;DHT22;24237;50.106;20.014;2023-12-20T01:07:01;10.80;1.00
38456;DHT22;24237;50.106;20.014;2023-12-20T01:09:27;10.80;1.00
38456;DHT22;24237;50.106;20.014;2023-12-20T01:11:53;10.90;1.00
38456;DHT22;24237;50.106;20.014;2023-12-20T01:14:19;10.80;1.00
38456;DHT22;24237;50.106;20.014;2023-12-20T01:16:44;10.80;1.00
38456;DHT22;24237;50.106;20.014;2023-12-20T01:19:10;10.90;1.00
38456;DHT22;24237;50.106;20.014;2023-12-20T01:21:36;11.00;1.00
38456;DHT22;24237;50.106;20.014;2023-12-20T01:24:02;10.90;1.00
38456;DHT22;24237;50.106;20.014;2023-12-20T01:26:28;11.00;1.00
38456;DHT22;24237;50.106;20.014;2023-12-20T01:28:53;11.00;1.00
38456;DHT22;24237;50.106;20.014;2023-12-20T01:31:19;11.00;1.00
38456;DHT22;24237;50.106;20.014;2023-12-20T01:33:45;11.00;1.00
38456;DHT22;24237;50.106;20.014;2023-12-20T01:36:11;11.10;1.00
38456;DHT22;24237;50.106;20.014;2023-12-20T01:38:37;11.20;1.00
38456;DHT22;24237;50.106;20.014;2023-12-20T01:41:03;11.00;1.00
38456;DHT22;24237;50.106;20.014;2023-12-20T01:43:29;11.00;1.00
38456;DHT22;24237;50.106;20.014;2023-12-20T01:45:56;11.10;1.00
38456;DHT22;24237;50.106;20.014;2023-12-20T01:48:23;11.00;1.00
38456;DHT22;24237;50.106;20.014;2023-12-20T01:50:50;11.10;1.00
38456;DHT22;24237;50.106;20.014;2023-12-20T01:53:16;11.20;1.00
38456;DHT22;24237;50.106;20.014;2023-12-20T01:55:44;11.10;1.00
38456;DHT22;24237;50.106;20.014;2023-12-20T01:58:10;11.10;1.00
38456;DHT22;24237;50.106;20.014;2023-12-20T02:00:37;11.10;1.00
38456;DHT22;24237;50.106;20.014;2023-12-20T02:03:03;10.90;1.00
38456;DHT22;24237;50.106;20.014;2023-12-20T02:05:33;10.90;1.00
38456;DHT22;24237;50.106;20.014;2023-12-20T02:08:00;10.90;1.00
38456;DHT22;24237;50.106;20.014;2023-12-20T02:10:26;11.10;1.00
38456;DHT22;24237;50.106;20.014;2023-12-20T02:12:52;11.30;1.00
38456;DHT22;24237;50.106;20.014;2023-12-20T02:15:18;11.30;1.00
38456;DHT22;24237;50.106;20.014;2023-12-20T02:17:44;11.20;1.00
38456;DHT22;24237;50.106;20.014;2023-12-20T02:20:10;11.10;1.00
38456;DHT22;24237;50.106;20.014;2023-12-20T02:22:36;11.20;1.00
38456;DHT22;24237;50.106;20.014;2023-12-20T02:25:02;11.20;1.00
38456;DHT22;24237;50.106;20.014;2023-12-20T02:27:28;11.10;1.00
38456;DHT22;24237;50.106;20.014;2023-12-20T02:29:54;11.00;1.00
38456;DHT22;24237;50.106;20.014;2023-12-20T02:32:20;11.00;1.00
38456;DHT22;24237;50.106;20.014;2023-12-20T02:34:47;10.90;1.00
38456;DHT22;24237;50.106;20.014;2023-12-20T02:37:13;11.20;1.00
38456;DHT22;24237;50.106;20.014;2023-12-20T02:39:39;11.20;1.00
38456;DHT22;24237;50.106;20.014;2023-12-20T02:42:05;11.20;1.00
38456;DHT22;24237;50.106;20.014;2023-12-20T02:44:30;11.00;1.00
38456;DHT22;24237;50.106;20.014;2023-12-20T02:46:56;11.00;1.00
38456;DHT22;24237;50.106;20.014;2023-12-20T02:49:21;10.90;1.00
38456;DHT22;24237;50.106;20.014;2023-12-20T02:51:47;10.90;1.00
38456;DHT22;24237;50.106;20.014;2023-12-20T02:54:13;10.90;1.00
38456;DHT22;24237;50.106;20.014;2023-12-20T02:56:38;10.80;1.00
38456;DHT22;24237;50.106;20.014;2023-12-20T02:59:04;10.90;1.00
38456;DHT22;24237;50.106;20.014;2023-12-20T03:01:31;10.80;1.00
38456;DHT22;24237;50.106;20.014;2023-12-20T03:03:57;10.70;1.00
38456;DHT22;24237;50.106;20.014;2023-12-20T03:06:23;10.60;1.00
38456;DHT22;24237;50.106;20.014;2023-12-20T03:08:48;10.50;1.00
38456;DHT22;24237;50.106;20.014;2023-12-20T03:11:14;10.40;1.00
38456;DHT22;24237;50.106;20.014;2023-12-20T03:13:40;10.50;1.00
38456;DHT22;24237;50.106;20.014;2023-12-20T03:16:12;10.60;1.00
38456;DHT22;24237;50.106;20.014;2023-12-20T03:18:38;10.60;1.00
38456;DHT22;24237;50.106;20.014;2023-12-20T03:21:04;10.70;1.00
38456;DHT22;24237;50.106;20.014;2023-12-20T03:23:31;10.70;1.00
38456;DHT22;24237;50.106;20.014;2023-12-20T03:25:58;10.80;1.00
38456;DHT22;24237;50.106;20.014;2023-12-20T03:28:24;11.00;1.00
38456;DHT22;24237;50.106;20.014;2023-12-20T03:30:50;10.80;1.00
38456;DHT22;24237;50.106;20.014;2023-12-20T03:33:16;10.80;1.00
38456;DHT22;24237;50.106;20.014;2023-12-20T03:35:41;10.60;1.00
38456;DHT22;24237;50.106;20.014;2023-12-20T03:38:07;10.80;1.00
38456;DHT22;24237;50.106;20.014;2023-12-20T03:40:33;10.90;1.00
38456;DHT22;24237;50.106;20.014;2023-12-20T03:42:59;11.20;1.00
38456;DHT22;24237;50.106;20.014;2023-12-20T03:45:25;11.00;1.00
38456;DHT22;24237;50.106;20.014;2023-12-20T03:47:52;10.90;1.00
38456;DHT22;24237;50.106;20.014;2023-12-20T03:50:25;11.10;1.00
38456;DHT22;24237;50.106;20.014;2023-12-20T03:52:51;11.20;1.00
38456;DHT22;24237;50.106;20.014;2023-12-20T03:55:17;11.10;1.00
38456;DHT22;24237;50.106;20.014;2023-12-20T03:57:42;11.00;1.00
38456;DHT22;24237;50.106;20.014;2023-12-20T04:00:09;11.10;1.00
38456;DHT22;24237;50.106;20.014;2023-12-20T04:02:40;11.10;1.00
38456;DHT22;24237;50.106;20.014;2023-12-20T04:05:06;11.10;1.00
38456;DHT22;24237;50.106;20.014;2023-12-20T04:07:32;11.00;1.00
38456;DHT22;24237;50.106;20.014;2023-12-20T04:09:58;10.90;1.00
38456;DHT22;24237;50.106;20.014;2023-12-20T04:12:24;10.80;1.00
38456;DHT22;24237;50.106;20.014;2023-12-20T04:14:50;10.90;1.00
38456;DHT22;24237;50.106;20.014;2023-12-20T04:17:16;10.70;1.00
38456;DHT22;24237;50.106;20.014;2023-12-20T04:19:45;10.90;1.00
38456;DHT22;24237;50.106;20.014;2023-12-20T04:22:10;10.90;1.00
38456;DHT22;24237;50.106;20.014;2023-12-20T04:24:36;11.00;1.00
38456;DHT22;24237;50.106;20.014;2023-12-20T04:27:02;11.00;1.00
38456;DHT22;24237;50.106;20.014;2023-12-20T04:29:28;10.90;1.00
38456;DHT22;24237;50.106;20.014;2023-12-20T04:31:53;10.80;1.00
38456;DHT22;24237;50.106;20.014;2023-12-20T04:34:19;10.80;1.00
38456;DHT22;24237;50.106;20.014;2023-12-20T04:36:45;10.70;1.00
38456;DHT22;24237;50.106;20.014;2023-12-20T04:39:12;10.60;1.00
38456;DHT22;24237;50.106;20.014;2023-12-20T04:41:38;10.60;1.00
38456;DHT22;24237;50.106;20.014;2023-12-20T04:44:05;10.60;1.00
38456;DHT22;24237;50.106;20.014;2023-12-20T04:46:31;10.60;1.00
38456;DHT22;24237;50.106;20.014;2023-12-20T04:48:57;10.50;1.00
38456;DHT22;24237;50.106;20.014;2023-12-20T04:51:23;10.50;1.00
38456;DHT22;24237;50.106;20.014;2023-12-20T04:53:49;10.40;1.00
38456;DHT22;24237;50.106;20.014;2023-12-20T04:56:14;10.40;1.00
38456;DHT22;24237;50.106;20.014;2023-12-20T04:58:40;10.10;1.00
38456;DHT22;24237;50.106;20.014;2023-12-20T05:01:06;9.90;1.00
38456;DHT22;24237;50.106;20.014;2023-12-20T05:03:32;10.00;1.00
38456;DHT22;24237;50.106;20.014;2023-12-20T05:05:58;10.00;1.00
38456;DHT22;24237;50.106;20.014;2023-12-20T05:08:24;10.10;1.00
38456;DHT22;24237;50.106;20.014;2023-12-20T05:10:51;9.80;1.00
38456;DHT22;24237;50.106;20.014;2023-12-20T05:13:17;9.70;1.00
38456;DHT22;24237;50.106;20.014;2023-12-20T05:15:42;9.60;1.00
38456;DHT22;24237;50.106;20.014;2023-12-20T05:18:08;9.70;1.00
38456;DHT22;24237;50.106;20.014;2023-12-20T05:20:34;9.50;1.00
38456;DHT22;24237;50.106;20.014;2023-12-20T05:23:00;9.30;1.00
38456;DHT22;24237;50.106;20.014;2023-12-20T05:25:25;9.10;80.00
38456;DHT22;24237;50.106;20.014;2023-12-20T05:27:51;9.40;99.90
38456;DHT22;24237;50.106;20.014;2023-12-20T05:30:17;9.20;99.90
38456;DHT22;24237;50.106;20.014;2023-12-20T05:32:42;9.20;1.00
38456;DHT22;24237;50.106;20.014;2023-12-20T05:35:08;8.90;99.90
38456;DHT22;24237;50.106;20.014;2023-12-20T05:37:34;8.80;1.00
38456;DHT22;24237;50.106;20.014;2023-12-20T05:39:59;8.80;99.90
38456;DHT22;24237;50.106;20.014;2023-12-20T05:42:25;8.90;1.00
38456;DHT22;24237;50.106;20.014;2023-12-20T05:44:51;8.90;1.00
38456;DHT22;24237;50.106;20.014;2023-12-20T05:47:16;8.70;99.90
38456;DHT22;24237;50.106;20.014;2023-12-20T05:49:43;8.60;99.90
38456;DHT22;24237;50.106;20.014;2023-12-20T05:52:09;8.60;1.00
38456;DHT22;24237;50.106;20.014;2023-12-20T05:54:35;8.40;24.10
38456;DHT22;24237;50.106;20.014;2023-12-20T05:57:01;8.20;1.00
38456;DHT22;24237;50.106;20.014;2023-12-20T05:59:26;8.20;1.00
38456;DHT22;24237;50.106;20.014;2023-12-20T06:01:52;8.10;99.90
38456;DHT22;24237;50.106;20.014;2023-12-20T06:04:18;7.90;1.00
38456;DHT22;24237;50.106;20.014;2023-12-20T06:06:44;7.60;99.90
38456;DHT22;24237;50.106;20.014;2023-12-20T06:09:10;7.60;99.90
38456;DHT22;24237;50.106;20.014;2023-12-20T06:11:36;7.50;4.40
38456;DHT22;24237;50.106;20.014;2023-12-20T06:14:01;7.40;27.40
38456;DHT22;24237;50.106;20.014;2023-12-20T06:16:27;7.50;99.90
38456;DHT22;24237;50.106;20.014;2023-12-20T06:18:53;7.20;1.00
38456;DHT22;24237;50.106;20.014;2023-12-20T06:21:19;7.00;99.90
38456;DHT22;24237;50.106;20.014;2023-12-20T06:23:44;6.90;99.90
38456;DHT22;24237;50.106;20.014;2023-12-20T06:26:10;6.80;1.00
38456;DHT22;24237;50.106;20.014;2023-12-20T06:28:36;6.80;1.00
38456;DHT22;24237;50.106;20.014;2023-12-20T06:31:01;6.80;1.00
38456;DHT22;24237;50.106;20.014;2023-12-20T06:33:28;6.80;1.00
38456;DHT22;24237;50.106;20.014;2023-12-20T06:35:56;6.90;1.00
38456;DHT22;24237;50.106;20.014;2023-12-20T06:38:22;7.00;1.00
38456;DHT22;24237;50.106;20.014;2023-12-20T06:40:47;7.10;1.00
38456;DHT22;24237;50.106;20.014;2023-12-20T06:43:13;7.00;1.00
38456;DHT22;24237;50.106;20.014;2023-12-20T06:45:39;7.20;1.00
38456;DHT22;24237;50.106;20.014;2023-12-20T06:48:05;7.20;1.00
38456;DHT22;24237;50.106;20.014;2023-12-20T06:50:31;7.10;1.00
38456;DHT22;24237;50.106;20.014;2023-12-20T06:52:56;7.30;1.00
38456;DHT22;24237;50.106;20.014;2023-12-20T06:55:22;7.20;1.00
38456;DHT22;24237;50.106;20.014;2023-12-20T06:57:48;7.00;28.00
38456;DHT22;24237;50.106;20.014;2023-12-20T07:00:14;7.20;5.40
38456;DHT22;24237;50.106;20.014;2023-12-20T07:02:40;7.10;41.00
38456;DHT22;24237;50.106;20.014;2023-12-20T07:05:06;7.20;64.70
38456;DHT22;24237;50.106;20.014;2023-12-20T07:07:32;7.20;99.90
38456;DHT22;24237;50.106;20.014;2023-12-20T07:09:58;7.20;8.50
38456;DHT22;24237;50.106;20.014;2023-12-20T07:12:24;7.20;99.90
38456;DHT22;24237;50.106;20.014;2023-12-20T07:14:49;7.30;38.00
38456;DHT22;24237;50.106;20.014;2023-12-20T07:17:15;7.20;31.40
38456;DHT22;24237;50.106;20.014;2023-12-20T07:19:41;7.20;1.00
38456;DHT22;24237;50.106;20.014;2023-12-20T07:22:08;7.10;20.80
38456;DHT22;24237;50.106;20.014;2023-12-20T07:24:34;7.30;1.00
38456;DHT22;24237;50.106;20.014;2023-12-20T07:27:00;7.20;1.00
38456;DHT22;24237;50.106;20.014;2023-12-20T07:29:26;7.30;1.00
38456;DHT22;24237;50.106;20.014;2023-12-20T07:31:53;7.20;1.00
38456;DHT22;24237;50.106;20.014;2023-12-20T07:34:23;7.00;99.90
38456;DHT22;24237;50.106;20.014;2023-12-20T07:36:48;6.80;99.90
38456;DHT22;24237;50.106;20.014;2023-12-20T07:39:14;6.90;99.90
38456;DHT22;24237;50.106;20.014;2023-12-20T07:41:40;6.90;99.90
38456;DHT22;24237;50.106;20.014;2023-12-20T07:44:06;7.10;99.90
38456;DHT22;24237;50.106;20.014;2023-12-20T07:46:33;7.10;99.90
38456;DHT22;24237;50.106;20.014;2023-12-20T07:48:58;7.20;99.90
38456;DHT22;24237;50.106;20.014;2023-12-20T07:51:24;7.30;1.00
38456;DHT22;24237;50.106;20.014;2023-12-20T07:53:51;7.50;1.00
38456;DHT22;24237;50.106;20.014;2023-12-20T07:56:18;7.60;99.90
38456;DHT22;24237;50.106;20.014;2023-12-20T07:58:44;7.40;1.00
38456;DHT22;24237;50.106;20.014;2023-12-20T08:01:15;7.40;1.00
38456;DHT22;24237;50.106;20.014;2023-12-20T08:03:41;7.20;10.90
38456;DHT22;24237;50.106;20.014;2023-12-20T08:06:07;7.30;1.00
38456;DHT22;24237;50.106;20.014;2023-12-20T08:08:32;7.40;1.00
38456;DHT22;24237;50.106;20.014;2023-12-20T08:10:58;7.30;2.70
38456;DHT22;24237;50.106;20.014;2023-12-20T08:13:25;7.20;99.90
38456;DHT22;24237;50.106;20.014;2023-12-20T08:15:52;7.30;1.00
38456;DHT22;24237;50.106;20.014;2023-12-20T08:18:18;7.10;1.00
38456;DHT22;24237;50.106;20.014;2023-12-20T08:20:44;6.90;99.90
38456;DHT22;24237;50.106;20.014;2023-12-20T08:23:09;7.00;83.50
38456;DHT22;24237;50.106;20.014;2023-12-20T08:25:35;7.10;14.00
38456;DHT22;24237;50.106;20.014;2023-12-20T08:28:03;6.80;90.10
38456;DHT22;24237;50.106;20.014;2023-12-20T08:30:29;7.00;99.90
38456;DHT22;24237;50.106;20.014;2023-12-20T08:32:56;6.90;99.90
38456;DHT22;24237;50.106;20.014;2023-12-20T08:35:22;6.80;99.90
38456;DHT22;24237;50.106;20.014;2023-12-20T08:37:48;6.90;99.90
38456;DHT22;24237;50.106;20.014;2023-12-20T08:40:13;7.00;99.90
38456;DHT22;24237;50.106;20.014;2023-12-20T08:42:39;7.00;83.90
38456;DHT22;24237;50.106;20.014;2023-12-20T08:45:05;6.80;99.90
38456;DHT22;24237;50.106;20.014;2023-12-20T08:47:31;6.60;99.90
38456;DHT22;24237;50.106;20.014;2023-12-20T08:49:56;6.70;99.90
38456;DHT22;24237;50.106;20.014;2023-12-20T08:52:26;6.80;99.90
38456;DHT22;24237;50.106;20.014;2023-12-20T08:54:55;6.70;99.90
38456;DHT22;24237;50.106;20.014;2023-12-20T08:57:21;6.70;99.90
38456;DHT22;24237;50.106;20.014;2023-12-20T08:59:48;6.60;99.90
38456;DHT22;24237;50.106;20.014;2023-12-20T09:02:14;6.70;99.90
38456;DHT22;24237;50.106;20.014;2023-12-20T09:04:40;6.80;99.90
38456;DHT22;24237;50.106;20.014;2023-12-20T09:07:05;6.80;99.90
38456;DHT22;24237;50.106;20.014;2023-12-20T09:09:31;6.80;99.90
38456;DHT22;24237;50.106;20.014;2023-12-20T09:11:57;6.70;99.90
38456;DHT22;24237;50.106;20.014;2023-12-20T09:14:23;6.80;99.90
38456;DHT22;24237;50.106;20.014;2023-12-20T09:16:49;6.70;99.90
38456;DHT22;24237;50.106;20.014;2023-12-20T09:19:17;6.90;99.90
38456;DHT22;24237;50.106;20.014;2023-12-20T09:21:43;6.90;99.90
38456;DHT22;24237;50.106;20.014;2023-12-20T09:24:09;6.80;99.90
38456;DHT22;24237;50.106;20.014;2023-12-20T09:26:34;6.70;99.90
38456;DHT22;24237;50.106;20.014;2023-12-20T09:29:00;6.80;99.90
38456;DHT22;24237;50.106;20.014;2023-12-20T09:31:26;6.70;99.90
38456;DHT22;24237;50.106;20.014;2023-12-20T09:33:52;6.50;1.00
38456;DHT22;24237;50.106;20.014;2023-12-20T09:36:18;6.80;99.90
38456;DHT22;24237;50.106;20.014;2023-12-20T09:38:43;6.50;1.00
38456;DHT22;24237;50.106;20.014;2023-12-20T09:41:09;6.70;99.90
38456;DHT22;24237;50.106;20.014;2023-12-20T09:43:37;6.90;99.90
38456;DHT22;24237;50.106;20.014;2023-12-20T09:46:05;6.80;99.90
38456;DHT22;24237;50.106;20.014;2023-12-20T09:48:33;6.90;99.90
38456;DHT22;24237;50.106;20.014;2023-12-20T09:50:59;6.90;99.90
38456;DHT22;24237;50.106;20.014;2023-12-20T09:53:25;6.90;99.90
38456;DHT22;24237;50.106;20.014;2023-12-20T09:55:58;7.10;99.90
38456;DHT22;24237;50.106;20.014;2023-12-20T09:58:27;7.00;99.90
38456;DHT22;24237;50.106;20.014;2023-12-20T10:00:54;7.00;99.90
38456;DHT22;24237;50.106;20.014;2023-12-20T10:03:24;6.80;99.90
38456;DHT22;24237;50.106;20.014;2023-12-20T10:05:54;6.70;99.90
38456;DHT22;24237;50.106;20.014;2023-12-20T10:08:21;6.70;99.90
38456;DHT22;24237;50.106;20.014;2023-12-20T10:10:48;6.60;99.90
38456;DHT22;24237;50.106;20.014;2023-12-20T10:13:14;6.40;1.00
38456;DHT22;24237;50.106;20.014;2023-12-20T10:15:40;6.50;99.90
38456;DHT22;24237;50.106;20.014;2023-12-20T10:18:06;6.50;99.90
38456;DHT22;24237;50.106;20.014;2023-12-20T10:20:32;6.50;99.90
38456;DHT22;24237;50.106;20.014;2023-12-20T10:22:59;6.50;99.90
38456;DHT22;24237;50.106;20.014;2023-12-20T10:25:25;6.50;1.00
38456;DHT22;24237;50.106;20.014;2023-12-20T10:28:09;6.50;99.90
38456;DHT22;24237;50.106;20.014;2023-12-20T10:30:36;6.60;99.90
38456;DHT22;24237;50.106;20.014;2023-12-20T10:33:02;6.60;99.90
38456;DHT22;24237;50.106;20.014;2023-12-20T10:35:28;6.60;99.90
38456;DHT22;24237;50.106;20.014;2023-12-20T10:37:56;6.60;99.90
38456;DHT22;24237;50.106;20.014;2023-12-20T10:40:22;6.50;99.90
38456;DHT22;24237;50.106;20.014;2023-12-20T10:42:48;6.40;99.90
38456;DHT22;24237;50.106;20.014;2023-12-20T10:45:15;6.20;1.00
38456;DHT22;24237;50.106;20.014;2023-12-20T10:47:44;6.40;99.90
38456;DHT22;24237;50.106;20.014;2023-12-20T10:50:11;6.50;1.00
38456;DHT22;24237;50.106;20.014;2023-12-20T10:52:38;6.50;99.90
38456;DHT22;24237;50.106;20.014;2023-12-20T10:55:04;6.50;99.90
38456;DHT22;24237;50.106;20.014;2023-12-20T10:57:30;6.30;99.90
38456;DHT22;24237;50.106;20.014;2023-12-20T11:00:00;6.20;1.00
38456;DHT22;24237;50.106;20.014;2023-12-20T11:02:31;6.10;1.00
38456;DHT22;24237;50.106;20.014;2023-12-20T11:05:10;6.30;1.00
38456;DHT22;24237;50.106;20.014;2023-12-20T11:08:02;6.40;1.00
38456;DHT22;24237;50.106;20.014;2023-12-20T11:10:49;6.20;1.00
38456;DHT22;24237;50.106;20.014;2023-12-20T11:13:22;6.50;1.00
38456;DHT22;24237;50.106;20.014;2023-12-20T11:15:48;6.50;1.00
38456;DHT22;24237;50.106;20.014;2023-12-20T11:18:15;6.50;1.00
38456;DHT22;24237;50.106;20.014;2023-12-20T11:20:41;6.50;1.00
38456;DHT22;24237;50.106;20.014;2023-12-20T11:23:10;6.60;99.90
38456;DHT22;24237;50.106;20.014;2023-12-20T11:26:05;6.60;1.00
38456;DHT22;24237;50.106;20.014;2023-12-20T11:28:31;6.60;1.00
38456;DHT22;24237;50.106;20.014;2023-12-20T11:30:58;6.60;1.00
38456;DHT22;24237;50.106;20.014;2023-12-20T11:33:30;6.60;1.00
38456;DHT22;24237;50.106;20.014;2023-12-20T11:35:57;6.70;1.00
38456;DHT22;24237;50.106;20.014;2023-12-20T11:38:25;6.50;1.00
38456;DHT22;24237;50.106;20.014;2023-12-20T11:40:53;6.60;1.00
38456;DHT22;24237;50.106;20.014;2023-12-20T11:46:08;6.80;1.00
38456;DHT22;24237;50.106;20.014;2023-12-20T11:48:36;6.80;99.90
38456;DHT22;24237;50.106;20.014;2023-12-20T11:51:02;6.90;1.00
38456;DHT22;24237;50.106;20.014;2023-12-20T11:53:29;6.90;1.00
38456;DHT22;24237;50.106;20.014;2023-12-20T11:55:57;7.00;99.90
38456;DHT22;24237;50.106;20.014;2023-12-20T11:58:23;7.00;99.90
38456;DHT22;24237;50.106;20.014;2023-12-20T12:00:50;7.00;99.90
38456;DHT22;24237;50.106;20.014;2023-12-20T12:03:16;7.20;99.90
38456;DHT22;24237;50.106;20.014;2023-12-20T12:05:41;7.20;99.90
38456;DHT22;24237;50.106;20.014;2023-12-20T12:08:07;7.20;99.90
38456;DHT22;24237;50.106;20.014;2023-12-20T12:10:33;7.10;99.90
38456;DHT22;24237;50.106;20.014;2023-12-20T12:12:59;6.70;99.90
38456;DHT22;24237;50.106;20.014;2023-12-20T12:15:26;6.90;99.90
38456;DHT22;24237;50.106;20.014;2023-12-20T12:17:56;7.00;99.90
38456;DHT22;24237;50.106;20.014;2023-12-20T12:20:22;6.90;99.90
38456;DHT22;24237;50.106;20.014;2023-12-20T12:23:22;6.90;99.90
38456;DHT22;24237;50.106;20.014;2023-12-20T12:25:48;6.90;99.90
38456;DHT22;24237;50.106;20.014;2023-12-20T12:28:14;7.20;99.90
38456;DHT22;24237;50.106;20.014;2023-12-20T12:30:40;7.10;99.90
38456;DHT22;24237;50.106;20.014;2023-12-20T12:33:05;6.90;99.90
38456;DHT22;24237;50.106;20.014;2023-12-20T12:35:31;6.90;99.90
38456;DHT22;24237;50.106;20.014;2023-12-20T12:37:59;7.00;99.90
38456;DHT22;24237;50.106;20.014;2023-12-20T12:40:25;6.90;99.90
38456;DHT22;24237;50.106;20.014;2023-12-20T12:42:51;6.90;99.90
38456;DHT22;24237;50.106;20.014;2023-12-20T12:45:17;7.10;99.90
38456;DHT22;24237;50.106;20.014;2023-12-20T12:47:42;7.20;99.90
38456;DHT22;24237;50.106;20.014;2023-12-20T12:50:10;7.00;99.90
38456;DHT22;24237;50.106;20.014;2023-12-20T12:52:35;7.20;99.90
38456;DHT22;24237;50.106;20.014;2023-12-20T12:55:01;7.10;99.90
38456;DHT22;24237;50.106;20.014;2023-12-20T12:57:27;7.10;99.90
38456;DHT22;24237;50.106;20.014;2023-12-20T12:59:54;7.30;99.90
38456;DHT22;24237;50.106;20.014;2023-12-20T13:02:20;7.20;99.90
38456;DHT22;24237;50.106;20.014;2023-12-20T13:04:45;7.10;99.90
38456;DHT22;24237;50.106;20.014;2023-12-20T13:07:11;6.90;99.90
38456;DHT22;24237;50.106;20.014;2023-12-20T13:09:38;7.00;99.90
38456;DHT22;24237;50.106;20.014;2023-12-20T13:12:04;7.20;99.90
38456;DHT22;24237;50.106;20.014;2023-12-20T13:14:34;7.40;99.90
38456;DHT22;24237;50.106;20.014;2023-12-20T13:17:02;7.20;99.90
38456;DHT22;24237;50.106;20.014;2023-12-20T13:19:29;7.30;99.90
38456;DHT22;24237;50.106;20.014;2023-12-20T13:21:55;7.30;99.90
38456;DHT22;24237;50.106;20.014;2023-12-20T13:24:21;7.30;99.90
38456;DHT22;24237;50.106;20.014;2023-12-20T13:26:47;7.10;99.90
38456;DHT22;24237;50.106;20.014;2023-12-20T13:29:12;7.30;99.90
38456;DHT22;24237;50.106;20.014;2023-12-20T13:31:38;7.20;99.90
38456;DHT22;24237;50.106;20.014;2023-12-20T13:34:06;7.30;99.90
38456;DHT22;24237;50.106;20.014;2023-12-20T13:36:32;7.20;99.90
38456;DHT22;24237;50.106;20.014;2023-12-20T13:38:57;7.30;91.60
38456;DHT22;24237;50.106;20.014;2023-12-20T13:41:23;7.40;26.20
38456;DHT22;24237;50.106;20.014;2023-12-20T13:43:49;7.50;1.00
38456;DHT22;24237;50.106;20.014;2023-12-20T13:46:15;7.60;99.90
38456;DHT22;24237;50.106;20.014;2023-12-20T13:48:40;7.40;1.00
38456;DHT22;24237;50.106;20.014;2023-12-20T13:51:07;7.50;99.90
38456;DHT22;24237;50.106;20.014;2023-12-20T13:53:33;7.40;99.90
38456;DHT22;24237;50.106;20.014;2023-12-20T13:55:59;7.80;1.00
38456;DHT22;24237;50.106;20.014;2023-12-20T13:58:26;7.70;1.00
38456;DHT22;24237;50.106;20.014;2023-12-20T14:00:51;7.50;99.90
38456;DHT22;24237;50.106;20.014;2023-12-20T14:03:17;7.70;1.00
38456;DHT22;24237;50.106;20.014;2023-12-20T14:05:43;7.80;1.00
38456;DHT22;24237;50.106;20.014;2023-12-20T14:08:08;7.70;1.00
38456;DHT22;24237;50.106;20.014;2023-12-20T14:10:35;7.80;1.00
38456;DHT22;24237;50.106;20.014;2023-12-20T14:13:01;7.90;99.90
38456;DHT22;24237;50.106;20.014;2023-12-20T14:15:27;8.00;99.90
38456;DHT22;24237;50.106;20.014;2023-12-20T14:17:52;7.80;99.90
38456;DHT22;24237;50.106;20.014;2023-12-20T14:20:19;7.60;1.00
38456;DHT22;24237;50.106;20.014;2023-12-20T14:22:44;7.60;1.00
38456;DHT22;24237;50.106;20.014;2023-12-20T14:25:14;7.50;1.00
38456;DHT22;24237;50.106;20.014;2023-12-20T14:27:40;7.80;99.90
38456;DHT22;24237;50.106;20.014;2023-12-20T14:30:09;7.70;99.90
38456;DHT22;24237;50.106;20.014;2023-12-20T14:32:35;8.00;99.90
38456;DHT22;24237;50.106;20.014;2023-12-20T14:35:05;8.00;1.00
38456;DHT22;24237;50.106;20.014;2023-12-20T14:37:32;7.80;65.80
38456;DHT22;24237;50.106;20.014;2023-12-20T14:40:05;8.00;99.90
38456;DHT22;24237;50.106;20.014;2023-12-20T14:42:30;7.90;99.90
38456;DHT22;24237;50.106;20.014;2023-12-20T14:44:57;8.00;77.20
38456;DHT22;24237;50.106;20.014;2023-12-20T14:47:23;8.10;1.00
38456;DHT22;24237;50.106;20.014;2023-12-20T14:49:50;8.20;1.00
38456;DHT22;24237;50.106;20.014;2023-12-20T14:52:18;8.00;99.90
38456;DHT22;24237;50.106;20.014;2023-12-20T14:54:44;8.00;99.90
38456;DHT22;24237;50.106;20.014;2023-12-20T14:57:10;7.90;99.90
38456;DHT22;24237;50.106;20.014;2023-12-20T14:59:36;7.90;99.90
38456;DHT22;24237;50.106;20.014;2023-12-20T15:02:02;8.10;99.90
38456;DHT22;24237;50.106;20.014;2023-12-20T15:04:31;8.10;61.00
38456;DHT22;24237;50.106;20.014;2023-12-20T15:06:57;8.20;1.00
38456;DHT22;24237;50.106;20.014;2023-12-20T15:09:23;8.10;1.00
38456;DHT22;24237;50.106;20.014;2023-12-20T15:11:50;8.00;99.90
38456;DHT22;24237;50.106;20.014;2023-12-20T15:14:16;8.00;5.90
38456;DHT22;24237;50.106;20.014;2023-12-20T15:16:46;8.10;12.20
38456;DHT22;24237;50.106;20.014;2023-12-20T15:19:15;7.80;99.90
38456;DHT22;24237;50.106;20.014;2023-12-20T15:21:41;7.90;99.90
38456;DHT22;24237;50.106;20.014;2023-12-20T15:24:10;7.90;99.90
38456;DHT22;24237;50.106;20.014;2023-12-20T15:26:41;7.90;99.90
38456;DHT22;24237;50.106;20.014;2023-12-20T15:29:08;7.80;99.90
38456;DHT22;24237;50.106;20.014;2023-12-20T15:31:35;7.80;99.90
38456;DHT22;24237;50.106;20.014;2023-12-20T15:34:02;7.80;99.90